Time,TemperatureF,DewpointF,PressureIn,WindDirection,WindDirectionDegrees,WindSpeedMPH,WindSpeedGustMPH,Humidity,HourlyPrecipIn,Conditions,Clouds,dailyrainin,SoftwareType,DateUTC
2013-03-14 00:00:00,28.6,24.9,29.94,NNW,328,0.0,0.0,86,0.00,,SCT,0.00,WeatherDisplay:10.37,2013-03-14 00:00:00,
2013-03-14 00:05:00,28.5,24.9,29.94,NW,315,0.0,0.0,86,0.00,,SCT,0.00,WeatherDisplay:10.37,2013-03-14 00:05:00,
2013-03-14 00:10:00,28.2,24.6,29.94,NW,312,0.0,0.0,86,0.00,,SCT,0.00,WeatherDisplay:10.37,2013-03-14 00:10:00,
2013-03-14 00:15:00,28.2,24.6,29.94,NW,315,0.0,0.0,86,0.00,,SCT,0.00,WeatherDisplay:10.37,2013-03-14 00:15:00,
2013-03-14 00:20:00,28.0,24.7,29.94,NW,315,0.0,0.0,87,0.00,,SCT,0.00,WeatherDisplay:10.37,2013-03-14 00:20:00,
2013-03-14 00:25:00,28.0,24.7,29.95,NW,315,0.0,0.0,87,0.00,,SCT,0.00,WeatherDisplay:10.37,2013-03-14 00:25:00,
2013-03-14 00:30:00,27.7,24.3,29.94,NW,315,0.0,0.0,87,0.00,,SCT,0.00,WeatherDisplay:10.37,2013-03-14 00:30:00,
2013-03-14 00:35:00,27.7,24.3,29.94,NW,316,0.0,0.0,87,0.00,,SCT,0.00,WeatherDisplay:10.37,2013-03-14 00:35:00,
2013-03-14 00:40:00,27.7,24.3,29.95,NNW,329,0.0,0.0,87,0.00,,SCT,0.00,WeatherDisplay:10.37,2013-03-14 00:40:00,
2013-03-14 00:45:00,27.7,24.3,29.95,NNW,338,0.0,0.0,87,0.00,,SCT,0.00,WeatherDisplay:10.37,2013-03-14 00:45:00,
2013-03-14 00:55:00,27.5,24.1,29.96,NNW,332,0.0,1.0,87,0.00,,SCT,0.00,WeatherDisplay:10.37,2013-03-14 00:55:00,
2013-03-14 01:00:00,27.5,24.1,29.96,NW,324,0.0,1.0,87,0.00,,SCT,0.00,WeatherDisplay:10.37,2013-03-14 01:00:00,
2013-03-14 01:05:00,27.5,24.4,29.95,NNW,332,0.0,0.0,88,0.00,,SCT,0.00,WeatherDisplay:10.37,2013-03-14 01:05:00,
2013-03-14 01:10:00,27.3,24.2,29.96,NNW,338,0.0,0.0,88,0.00,,SCT,0.00,WeatherDisplay:10.37,2013-03-14 01:10:00,
2013-03-14 01:15:00,27.5,24.4,29.96,NNW,338,0.0,0.0,88,0.00,,SCT,0.00,WeatherDisplay:10.37,2013-03-14 01:15:00,
2013-03-14 01:20:00,27.5,24.4,29.96,NNW,334,0.0,0.0,88,0.00,,SCT,0.00,WeatherDisplay:10.37,2013-03-14 01:20:00,
2013-03-14 01:30:00,27.3,24.2,29.96,NW,322,0.0,1.0,88,0.00,,SCT,0.00,WeatherDisplay:10.37,2013-03-14 01:30:00,
2013-03-14 01:35:00,27.3,24.2,29.96,NW,305,0.0,0.0,88,0.00,,SCT,0.00,WeatherDisplay:10.37,2013-03-14 01:35:00,
2013-03-14 01:40:00,27.1,24.1,29.96,NW,309,0.0,0.0,88,0.00,,SCT,0.00,WeatherDisplay:10.37,2013-03-14 01:40:00,
2013-03-14 01:45:00,27.1,24.1,29.96,NW,310,0.0,0.0,88,0.00,,SCT,0.00,WeatherDisplay:10.37,2013-03-14 01:45:00,
2013-03-14 01:50:00,27.1,24.1,29.96,NW,317,0.0,0.0,88,0.00,,SCT,0.00,WeatherDisplay:10.37,2013-03-14 01:50:00,
2013-03-14 01:55:00,27.1,24.0,29.96,NW,319,0.0,0.0,88,0.00,,SCT,0.00,WeatherDisplay:10.37,2013-03-14 01:55:00,
2013-03-14 02:00:00,26.9,23.8,29.96,NW,306,0.0,0.0,88,0.00,,SCT,0.00,WeatherDisplay:10.37,2013-03-14 02:00:00,
2013-03-14 02:05:00,26.8,23.7,29.96,NW,313,0.0,0.0,88,0.00,,SCT,0.00,WeatherDisplay:10.37,2013-03-14 02:05:00,
2013-03-14 02:10:00,26.8,23.7,29.97,NNW,330,0.0,0.0,88,0.00,,SCT,0.00,WeatherDisplay:10.37,2013-03-14 02:10:00,
2013-03-14 02:16:00,26.9,23.8,29.96,NNW,340,0.0,0.0,88,0.00,,SCT,0.00,WeatherDisplay:10.37,2013-03-14 02:16:00,
2013-03-14 02:25:00,27.0,24.2,29.97,NW,326,0.0,0.0,89,0.00,,SCT,0.00,WeatherDisplay:10.37,2013-03-14 02:25:00,
2013-03-14 02:31:00,26.8,24.0,29.96,NW,314,0.0,0.0,89,0.00,,SCT,0.00,WeatherDisplay:10.37,2013-03-14 02:31:00,
2013-03-14 02:40:00,26.4,23.3,29.97,NW,312,0.0,0.0,88,0.00,,SCT,0.00,WeatherDisplay:10.37,2013-03-14 02:40:00,
2013-03-14 02:50:00,25.7,22.6,29.97,SSW,197,0.0,0.0,88,0.00,,SCT,0.00,WeatherDisplay:10.37,2013-03-14 02:50:00,
2013-03-14 02:55:00,25.5,22.5,29.97,South,180,0.0,0.0,88,0.00,,SCT,0.00,WeatherDisplay:10.37,2013-03-14 02:55:00,
2013-03-14 03:00:00,25.5,22.7,29.97,South,180,0.0,0.0,89,0.00,,SCT,0.00,WeatherDisplay:10.37,2013-03-14 03:00:00,
2013-03-14 03:05:00,25.5,22.7,29.97,South,180,0.0,0.0,89,0.00,,SCT,0.00,WeatherDisplay:10.37,2013-03-14 03:05:00,
2013-03-14 03:15:00,25.2,22.4,29.97,South,180,0.0,0.0,89,0.00,,SCT,0.00,WeatherDisplay:10.37,2013-03-14 03:15:00,
2013-03-14 03:20:00,25.1,22.3,29.96,South,182,0.0,0.0,89,0.00,,SCT,0.00,WeatherDisplay:10.37,2013-03-14 03:20:00,
2013-03-14 03:25:00,25.0,22.2,29.96,SSW,213,0.0,0.0,89,0.00,,SCT,0.00,WeatherDisplay:10.37,2013-03-14 03:25:00,